sensor_id;sensor_type;location;lat;lon;timestamp;temperature;humidity
37460;DHT22;23318;50.966;5.284;2023-08-30T00:00:44;14.40;99.90
37460;DHT22;23318;50.966;5.284;2023-08-30T00:03:11;14.00;99.90
37460;DHT22;23318;50.966;5.284;2023-08-30T00:05:40;14.20;99.90
37460;DHT22;23318;50.966;5.284;2023-08-30T00:08:06;14.40;99.90
37460;DHT22;23318;50.966;5.284;2023-08-30T00:10:32;14.60;99.90
37460;DHT22;23318;50.966;5.284;2023-08-30T00:12:58;14.50;99.90
37460;DHT22;23318;50.966;5.284;2023-08-30T00:15:23;14.50;99.90
37460;DHT22;23318;50.966;5.284;2023-08-30T00:17:49;14.70;99.90
37460;DHT22;23318;50.966;5.284;2023-08-30T00:20:17;14.70;99.90
37460;DHT22;23318;50.966;5.284;2023-08-30T00:22:43;14.70;99.90
37460;DHT22;23318;50.966;5.284;2023-08-30T00:25:09;14.80;99.90
37460;DHT22;23318;50.966;5.284;2023-08-30T00:27:34;14.80;99.90
37460;DHT22;23318;50.966;5.284;2023-08-30T00:30:00;14.90;99.90
37460;DHT22;23318;50.966;5.284;2023-08-30T00:32:26;14.70;99.90
37460;DHT22;23318;50.966;5.284;2023-08-30T00:34:51;14.90;99.90
37460;DHT22;23318;50.966;5.284;2023-08-30T00:37:17;14.90;99.90
37460;DHT22;23318;50.966;5.284;2023-08-30T00:39:43;15.10;99.90
37460;DHT22;23318;50.966;5.284;2023-08-30T00:42:09;14.80;99.90
37460;DHT22;23318;50.966;5.284;2023-08-30T00:44:34;14.50;99.90
37460;DHT22;23318;50.966;5.284;2023-08-30T00:47:01;14.80;99.90
37460;DHT22;23318;50.966;5.284;2023-08-30T00:49:30;15.10;99.90
37460;DHT22;23318;50.966;5.284;2023-08-30T00:51:57;15.30;99.90
37460;DHT22;23318;50.966;5.284;2023-08-30T00:54:24;15.50;99.90
37460;DHT22;23318;50.966;5.284;2023-08-30T00:56:50;15.60;99.90
37460;DHT22;23318;50.966;5.284;2023-08-30T00:59:17;15.60;99.90
37460;DHT22;23318;50.966;5.284;2023-08-30T01:01:43;15.60;99.90
37460;DHT22;23318;50.966;5.284;2023-08-30T01:04:09;15.60;99.90
37460;DHT22;23318;50.966;5.284;2023-08-30T01:06:35;15.60;99.90
37460;DHT22;23318;50.966;5.284;2023-08-30T01:09:02;15.70;99.90
37460;DHT22;23318;50.966;5.284;2023-08-30T01:11:46;15.70;99.90
37460;DHT22;23318;50.966;5.284;2023-08-30T01:14:18;15.70;99.90
37460;DHT22;23318;50.966;5.284;2023-08-30T01:16:46;15.70;99.90
37460;DHT22;23318;50.966;5.284;2023-08-30T01:22:08;15.80;99.90
37460;DHT22;23318;50.966;5.284;2023-08-30T01:24:44;15.90;99.90
37460;DHT22;23318;50.966;5.284;2023-08-30T01:27:11;16.00;99.90
37460;DHT22;23318;50.966;5.284;2023-08-30T01:29:40;16.00;99.90
37460;DHT22;23318;50.966;5.284;2023-08-30T01:32:08;16.00;99.90
37460;DHT22;23318;50.966;5.284;2023-08-30T01:34:35;15.90;99.90
37460;DHT22;23318;50.966;5.284;2023-08-30T01:37:03;15.90;99.90
37460;DHT22;23318;50.966;5.284;2023-08-30T01:39:30;15.90;99.90
37460;DHT22;23318;50.966;5.284;2023-08-30T01:41:57;15.90;99.90
37460;DHT22;23318;50.966;5.284;2023-08-30T01:44:28;15.90;99.90
37460;DHT22;23318;50.966;5.284;2023-08-30T01:46:55;15.90;99.90
37460;DHT22;23318;50.966;5.284;2023-08-30T01:49:22;15.90;99.90
37460;DHT22;23318;50.966;5.284;2023-08-30T01:51:49;15.90;99.90
37460;DHT22;23318;50.966;5.284;2023-08-30T01:54:18;15.80;99.90
37460;DHT22;23318;50.966;5.284;2023-08-30T01:56:44;15.80;99.90
37460;DHT22;23318;50.966;5.284;2023-08-30T01:59:11;15.90;99.90
37460;DHT22;23318;50.966;5.284;2023-08-30T02:01:36;15.90;99.90
37460;DHT22;23318;50.966;5.284;2023-08-30T02:04:02;15.90;99.90
37460;DHT22;23318;50.966;5.284;2023-08-30T02:06:48;15.90;99.90
37460;DHT22;23318;50.966;5.284;2023-08-30T02:09:28;15.90;99.90
37460;DHT22;23318;50.966;5.284;2023-08-30T02:11:57;15.90;99.90
37460;DHT22;23318;50.966;5.284;2023-08-30T02:14:26;16.00;99.90
37460;DHT22;23318;50.966;5.284;2023-08-30T02:16:53;16.00;99.90
37460;DHT22;23318;50.966;5.284;2023-08-30T02:19:20;16.10;99.90
37460;DHT22;23318;50.966;5.284;2023-08-30T02:21:46;16.10;99.90
37460;DHT22;23318;50.966;5.284;2023-08-30T02:24:13;16.10;99.90
37460;DHT22;23318;50.966;5.284;2023-08-30T02:26:38;16.30;99.90
37460;DHT22;23318;50.966;5.284;2023-08-30T02:29:04;16.30;99.90
37460;DHT22;23318;50.966;5.284;2023-08-30T02:31:30;16.40;99.90
37460;DHT22;23318;50.966;5.284;2023-08-30T02:33:55;16.40;99.90
37460;DHT22;23318;50.966;5.284;2023-08-30T02:36:21;16.40;99.90
37460;DHT22;23318;50.966;5.284;2023-08-30T02:38:47;16.20;99.90
37460;DHT22;23318;50.966;5.284;2023-08-30T02:41:12;16.30;99.90
37460;DHT22;23318;50.966;5.284;2023-08-30T02:43:38;16.20;99.90
37460;DHT22;23318;50.966;5.284;2023-08-30T02:46:04;16.30;99.90
37460;DHT22;23318;50.966;5.284;2023-08-30T02:48:31;16.40;99.90
37460;DHT22;23318;50.966;5.284;2023-08-30T02:50:57;16.50;99.90
37460;DHT22;23318;50.966;5.284;2023-08-30T02:53:23;16.40;99.90
37460;DHT22;23318;50.966;5.284;2023-08-30T02:55:49;16.20;99.90
37460;DHT22;23318;50.966;5.284;2023-08-30T02:58:14;16.40;99.90
37460;DHT22;23318;50.966;5.284;2023-08-30T03:00:40;16.40;99.90
37460;DHT22;23318;50.966;5.284;2023-08-30T03:03:06;16.30;99.90
37460;DHT22;23318;50.966;5.284;2023-08-30T03:05:32;16.40;99.90
37460;DHT22;23318;50.966;5.284;2023-08-30T03:07:57;16.30;99.90
37460;DHT22;23318;50.966;5.284;2023-08-30T03:10:24;16.30;99.90
37460;DHT22;23318;50.966;5.284;2023-08-30T03:12:50;16.20;99.90
37460;DHT22;23318;50.966;5.284;2023-08-30T03:15:15;16.20;99.90
37460;DHT22;23318;50.966;5.284;2023-08-30T03:17:41;16.30;99.90
37460;DHT22;23318;50.966;5.284;2023-08-30T03:20:07;16.30;99.90
37460;DHT22;23318;50.966;5.284;2023-08-30T03:22:33;16.20;99.90
37460;DHT22;23318;50.966;5.284;2023-08-30T03:24:58;16.20;99.90
37460;DHT22;23318;50.966;5.284;2023-08-30T03:27:24;16.30;99.90
37460;DHT22;23318;50.966;5.284;2023-08-30T03:29:50;16.00;99.90
37460;DHT22;23318;50.966;5.284;2023-08-30T03:32:17;15.80;99.90
37460;DHT22;23318;50.966;5.284;2023-08-30T03:34:47;15.80;99.90
37460;DHT22;23318;50.966;5.284;2023-08-30T03:37:14;16.00;99.90
37460;DHT22;23318;50.966;5.284;2023-08-30T03:39:40;16.30;99.90
37460;DHT22;23318;50.966;5.284;2023-08-30T03:42:06;16.40;99.90
37460;DHT22;23318;50.966;5.284;2023-08-30T03:44:32;16.40;99.90
37460;DHT22;23318;50.966;5.284;2023-08-30T03:46:58;16.50;99.90
37460;DHT22;23318;50.966;5.284;2023-08-30T03:49:24;16.50;99.90
37460;DHT22;23318;50.966;5.284;2023-08-30T03:51:49;16.40;99.90
37460;DHT22;23318;50.966;5.284;2023-08-30T03:54:15;16.40;99.90
37460;DHT22;23318;50.966;5.284;2023-08-30T03:56:44;16.40;99.90
37460;DHT22;23318;50.966;5.284;2023-08-30T03:59:10;16.40;99.90
37460;DHT22;23318;50.966;5.284;2023-08-30T04:01:36;16.40;99.90
37460;DHT22;23318;50.966;5.284;2023-08-30T04:04:02;16.40;99.90
37460;DHT22;23318;50.966;5.284;2023-08-30T04:06:27;16.40;99.90
37460;DHT22;23318;50.966;5.284;2023-08-30T04:08:53;16.30;99.90
37460;DHT22;23318;50.966;5.284;2023-08-30T04:11:18;16.40;99.90
37460;DHT22;23318;50.966;5.284;2023-08-30T04:13:44;16.40;99.90
37460;DHT22;23318;50.966;5.284;2023-08-30T04:16:10;16.40;99.90
37460;DHT22;23318;50.966;5.284;2023-08-30T04:18:36;16.40;99.90
37460;DHT22;23318;50.966;5.284;2023-08-30T04:21:02;16.20;99.90
37460;DHT22;23318;50.966;5.284;2023-08-30T04:23:28;16.10;99.90
37460;DHT22;23318;50.966;5.284;2023-08-30T04:25:55;16.00;99.90
37460;DHT22;23318;50.966;5.284;2023-08-30T04:28:20;16.00;99.90
37460;DHT22;23318;50.966;5.284;2023-08-30T04:30:46;15.90;99.90
37460;DHT22;23318;50.966;5.284;2023-08-30T04:33:12;15.70;99.90
37460;DHT22;23318;50.966;5.284;2023-08-30T04:35:38;15.50;99.90
37460;DHT22;23318;50.966;5.284;2023-08-30T04:38:04;15.40;99.90
37460;DHT22;23318;50.966;5.284;2023-08-30T04:40:30;14.80;99.90
37460;DHT22;23318;50.966;5.284;2023-08-30T04:42:58;15.30;99.90
37460;DHT22;23318;50.966;5.284;2023-08-30T04:45:24;15.60;99.90
37460;DHT22;23318;50.966;5.284;2023-08-30T04:47:49;15.60;99.90
37460;DHT22;23318;50.966;5.284;2023-08-30T04:50:15;15.40;99.90
37460;DHT22;23318;50.966;5.284;2023-08-30T04:52:42;15.40;99.90
37460;DHT22;23318;50.966;5.284;2023-08-30T04:55:08;15.70;99.90
37460;DHT22;23318;50.966;5.284;2023-08-30T04:57:34;15.70;99.90
37460;DHT22;23318;50.966;5.284;2023-08-30T05:00:00;15.70;99.90
37460;DHT22;23318;50.966;5.284;2023-08-30T05:02:29;15.80;99.90
37460;DHT22;23318;50.966;5.284;2023-08-30T05:04:55;15.90;99.90
37460;DHT22;23318;50.966;5.284;2023-08-30T05:07:21;15.70;99.90
37460;DHT22;23318;50.966;5.284;2023-08-30T05:09:46;15.50;99.90
37460;DHT22;23318;50.966;5.284;2023-08-30T05:12:12;15.30;99.90
37460;DHT22;23318;50.966;5.284;2023-08-30T05:14:38;15.00;99.90
37460;DHT22;23318;50.966;5.284;2023-08-30T05:17:04;15.40;99.90
37460;DHT22;23318;50.966;5.284;2023-08-30T05:19:29;15.70;99.90
37460;DHT22;23318;50.966;5.284;2023-08-30T05:21:55;15.90;99.90
37460;DHT22;23318;50.966;5.284;2023-08-30T05:24:21;15.90;99.90
37460;DHT22;23318;50.966;5.284;2023-08-30T05:26:47;16.00;99.90
37460;DHT22;23318;50.966;5.284;2023-08-30T05:29:14;16.10;99.90
37460;DHT22;23318;50.966;5.284;2023-08-30T05:31:41;16.10;99.90
37460;DHT22;23318;50.966;5.284;2023-08-30T05:34:07;16.00;99.90
37460;DHT22;23318;50.966;5.284;2023-08-30T05:36:32;15.90;99.90
37460;DHT22;23318;50.966;5.284;2023-08-30T05:38:58;15.70;99.90
37460;DHT22;23318;50.966;5.284;2023-08-30T05:41:23;15.50;99.90
37460;DHT22;23318;50.966;5.284;2023-08-30T05:43:51;15.70;99.90
37460;DHT22;23318;50.966;5.284;2023-08-30T05:46:16;15.90;99.90
37460;DHT22;23318;50.966;5.284;2023-08-30T05:48:42;15.90;99.90
37460;DHT22;23318;50.966;5.284;2023-08-30T05:51:08;15.30;99.90
37460;DHT22;23318;50.966;5.284;2023-08-30T05:53:34;15.20;99.90
37460;DHT22;23318;50.966;5.284;2023-08-30T05:56:00;15.30;99.90
37460;DHT22;23318;50.966;5.284;2023-08-30T05:58:25;15.60;99.90
37460;DHT22;23318;50.966;5.284;2023-08-30T06:00:51;15.50;99.90
37460;DHT22;23318;50.966;5.284;2023-08-30T06:03:16;15.10;99.90
37460;DHT22;23318;50.966;5.284;2023-08-30T06:05:42;15.20;99.90
37460;DHT22;23318;50.966;5.284;2023-08-30T06:08:08;15.00;99.90
37460;DHT22;23318;50.966;5.284;2023-08-30T06:10:35;14.80;99.90
37460;DHT22;23318;50.966;5.284;2023-08-30T06:13:01;14.90;99.90
37460;DHT22;23318;50.966;5.284;2023-08-30T06:15:28;14.80;99.90
37460;DHT22;23318;50.966;5.284;2023-08-30T06:17:53;14.60;99.90
37460;DHT22;23318;50.966;5.284;2023-08-30T06:20:19;14.50;99.90
37460;DHT22;23318;50.966;5.284;2023-08-30T06:22:45;14.40;99.90
37460;DHT22;23318;50.966;5.284;2023-08-30T06:25:10;14.30;99.90
37460;DHT22;23318;50.966;5.284;2023-08-30T06:27:43;14.30;99.90
37460;DHT22;23318;50.966;5.284;2023-08-30T06:30:10;14.30;99.90
37460;DHT22;23318;50.966;5.284;2023-08-30T06:32:36;14.30;99.90
37460;DHT22;23318;50.966;5.284;2023-08-30T06:35:01;14.30;99.90
37460;DHT22;23318;50.966;5.284;2023-08-30T06:37:28;14.40;99.90
37460;DHT22;23318;50.966;5.284;2023-08-30T06:39:53;14.40;99.90
37460;DHT22;23318;50.966;5.284;2023-08-30T06:42:19;14.40;99.90
37460;DHT22;23318;50.966;5.284;2023-08-30T06:44:44;14.40;99.90
37460;DHT22;23318;50.966;5.284;2023-08-30T06:47:10;14.40;99.90
37460;DHT22;23318;50.966;5.284;2023-08-30T06:49:36;14.50;99.90
37460;DHT22;23318;50.966;5.284;2023-08-30T06:52:01;14.30;99.90
37460;DHT22;23318;50.966;5.284;2023-08-30T06:54:30;14.30;99.90
37460;DHT22;23318;50.966;5.284;2023-08-30T06:57:00;14.30;99.90
37460;DHT22;23318;50.966;5.284;2023-08-30T06:59:26;14.30;99.90
37460;DHT22;23318;50.966;5.284;2023-08-30T07:01:52;14.40;99.90
37460;DHT22;23318;50.966;5.284;2023-08-30T07:04:18;14.40;99.90
37460;DHT22;23318;50.966;5.284;2023-08-30T07:06:44;14.40;99.90
37460;DHT22;23318;50.966;5.284;2023-08-30T07:09:10;14.30;99.90
37460;DHT22;23318;50.966;5.284;2023-08-30T07:11:37;14.30;99.90
37460;DHT22;23318;50.966;5.284;2023-08-30T07:14:03;14.30;99.90
37460;DHT22;23318;50.966;5.284;2023-08-30T07:16:30;14.20;99.90
37460;DHT22;23318;50.966;5.284;2023-08-30T07:18:57;14.40;99.90
37460;DHT22;23318;50.966;5.284;2023-08-30T07:21:23;14.50;99.90
37460;DHT22;23318;50.966;5.284;2023-08-30T07:23:49;14.50;99.90
37460;DHT22;23318;50.966;5.284;2023-08-30T07:26:15;14.70;99.90
37460;DHT22;23318;50.966;5.284;2023-08-30T07:28:41;14.70;99.90
37460;DHT22;23318;50.966;5.284;2023-08-30T07:31:06;14.70;99.90
37460;DHT22;23318;50.966;5.284;2023-08-30T07:33:32;14.80;99.90
37460;DHT22;23318;50.966;5.284;2023-08-30T07:35:58;14.80;99.90
37460;DHT22;23318;50.966;5.284;2023-08-30T07:38:24;14.90;99.90
37460;DHT22;23318;50.966;5.284;2023-08-30T07:40:49;14.90;99.90
37460;DHT22;23318;50.966;5.284;2023-08-30T07:43:15;14.90;99.90
37460;DHT22;23318;50.966;5.284;2023-08-30T07:45:41;14.90;99.90
37460;DHT22;23318;50.966;5.284;2023-08-30T07:48:06;14.90;99.90
37460;DHT22;23318;50.966;5.284;2023-08-30T07:50:32;14.90;99.90
37460;DHT22;23318;50.966;5.284;2023-08-30T07:52:58;15.00;99.90
37460;DHT22;23318;50.966;5.284;2023-08-30T07:55:23;15.00;99.90
37460;DHT22;23318;50.966;5.284;2023-08-30T07:57:49;14.80;99.90
37460;DHT22;23318;50.966;5.284;2023-08-30T08:00:15;14.50;99.90
37460;DHT22;23318;50.966;5.284;2023-08-30T08:02:41;14.40;99.90
37460;DHT22;23318;50.966;5.284;2023-08-30T08:05:07;14.20;99.90
37460;DHT22;23318;50.966;5.284;2023-08-30T08:07:32;14.20;99.90
37460;DHT22;23318;50.966;5.284;2023-08-30T08:09:58;14.00;99.90
37460;DHT22;23318;50.966;5.284;2023-08-30T08:12:25;14.00;99.90
37460;DHT22;23318;50.966;5.284;2023-08-30T08:14:51;13.90;99.90
37460;DHT22;23318;50.966;5.284;2023-08-30T08:17:17;13.90;99.90
37460;DHT22;23318;50.966;5.284;2023-08-30T08:19:43;13.90;99.90
37460;DHT22;23318;50.966;5.284;2023-08-30T08:22:09;13.90;99.90
37460;DHT22;23318;50.966;5.284;2023-08-30T08:24:35;14.00;99.90
37460;DHT22;23318;50.966;5.284;2023-08-30T08:27:00;14.00;99.90
37460;DHT22;23318;50.966;5.284;2023-08-30T08:29:27;14.00;99.90
37460;DHT22;23318;50.966;5.284;2023-08-30T08:31:53;14.00;99.90
37460;DHT22;23318;50.966;5.284;2023-08-30T08:34:19;13.90;99.90
37460;DHT22;23318;50.966;5.284;2023-08-30T08:36:44;13.80;99.90
37460;DHT22;23318;50.966;5.284;2023-08-30T08:39:10;13.90;99.90
37460;DHT22;23318;50.966;5.284;2023-08-30T08:41:43;13.80;99.90
37460;DHT22;23318;50.966;5.284;2023-08-30T08:44:10;13.70;99.90
37460;DHT22;23318;50.966;5.284;2023-08-30T08:46:37;13.70;99.90
37460;DHT22;23318;50.966;5.284;2023-08-30T08:49:16;13.80;99.90
37460;DHT22;23318;50.966;5.284;2023-08-30T08:51:43;13.80;99.90
37460;DHT22;23318;50.966;5.284;2023-08-30T08:54:10;13.80;99.90
37460;DHT22;23318;50.966;5.284;2023-08-30T08:56:37;13.90;99.90
37460;DHT22;23318;50.966;5.284;2023-08-30T08:59:04;13.80;99.90
37460;DHT22;23318;50.966;5.284;2023-08-30T09:01:34;13.80;99.90
37460;DHT22;23318;50.966;5.284;2023-08-30T09:04:04;13.90;99.90
37460;DHT22;23318;50.966;5.284;2023-08-30T09:06:31;14.00;99.90
37460;DHT22;23318;50.966;5.284;2023-08-30T09:08:56;13.90;99.90
37460;DHT22;23318;50.966;5.284;2023-08-30T09:11:22;14.10;99.90
37460;DHT22;23318;50.966;5.284;2023-08-30T09:13:47;14.00;99.90
37460;DHT22;23318;50.966;5.284;2023-08-30T09:16:16;14.10;99.90
37460;DHT22;23318;50.966;5.284;2023-08-30T09:18:42;14.10;99.90
37460;DHT22;23318;50.966;5.284;2023-08-30T09:21:09;14.00;99.90
37460;DHT22;23318;50.966;5.284;2023-08-30T09:23:35;14.10;99.90
37460;DHT22;23318;50.966;5.284;2023-08-30T09:26:02;14.10;99.90
37460;DHT22;23318;50.966;5.284;2023-08-30T09:28:30;14.10;99.90
37460;DHT22;23318;50.966;5.284;2023-08-30T09:30:59;14.20;99.90
37460;DHT22;23318;50.966;5.284;2023-08-30T09:33:32;14.30;99.90
37460;DHT22;23318;50.966;5.284;2023-08-30T09:35:59;14.30;99.90
37460;DHT22;23318;50.966;5.284;2023-08-30T09:38:25;14.20;99.90
37460;DHT22;23318;50.966;5.284;2023-08-30T09:41:04;14.40;99.90
37460;DHT22;23318;50.966;5.284;2023-08-30T09:43:32;14.50;99.90
37460;DHT22;23318;50.966;5.284;2023-08-30T09:46:03;14.50;99.90
37460;DHT22;23318;50.966;5.284;2023-08-30T09:48:29;14.50;99.90
37460;DHT22;23318;50.966;5.284;2023-08-30T09:50:58;14.70;99.90
37460;DHT22;23318;50.966;5.284;2023-08-30T09:53:26;14.60;99.90
37460;DHT22;23318;50.966;5.284;2023-08-30T09:55:56;14.70;99.90
37460;DHT22;23318;50.966;5.284;2023-08-30T09:58:22;14.80;99.90
37460;DHT22;23318;50.966;5.284;2023-08-30T10:00:49;14.90;99.90
37460;DHT22;23318;50.966;5.284;2023-08-30T10:03:15;15.00;99.90
37460;DHT22;23318;50.966;5.284;2023-08-30T10:05:45;14.90;99.90
37460;DHT22;23318;50.966;5.284;2023-08-30T10:08:11;14.90;99.90
37460;DHT22;23318;50.966;5.284;2023-08-30T10:10:39;15.00;99.90
37460;DHT22;23318;50.966;5.284;2023-08-30T10:13:06;14.90;99.90
37460;DHT22;23318;50.966;5.284;2023-08-30T10:15:36;14.90;99.90
37460;DHT22;23318;50.966;5.284;2023-08-30T10:18:04;14.90;99.90
37460;DHT22;23318;50.966;5.284;2023-08-30T10:20:32;15.10;99.90
37460;DHT22;23318;50.966;5.284;2023-08-30T10:22:58;15.10;99.90
37460;DHT22;23318;50.966;5.284;2023-08-30T10:25:28;14.90;99.90
37460;DHT22;23318;50.966;5.284;2023-08-30T10:27:55;14.90;99.90
37460;DHT22;23318;50.966;5.284;2023-08-30T10:30:22;14.90;99.90
37460;DHT22;23318;50.966;5.284;2023-08-30T10:32:48;14.90;99.90
37460;DHT22;23318;50.966;5.284;2023-08-30T10:35:15;14.90;99.90
37460;DHT22;23318;50.966;5.284;2023-08-30T10:37:42;14.90;99.90
37460;DHT22;23318;50.966;5.284;2023-08-30T10:40:09;14.80;99.90
37460;DHT22;23318;50.966;5.284;2023-08-30T10:42:35;14.90;99.90
37460;DHT22;23318;50.966;5.284;2023-08-30T10:45:03;14.90;99.90
37460;DHT22;23318;50.966;5.284;2023-08-30T10:47:34;14.90;99.90
37460;DHT22;23318;50.966;5.284;2023-08-30T10:50:12;14.90;99.90
37460;DHT22;23318;50.966;5.284;2023-08-30T10:52:38;14.90;99.90
37460;DHT22;23318;50.966;5.284;2023-08-30T10:55:13;14.90;99.90
37460;DHT22;23318;50.966;5.284;2023-08-30T10:57:44;15.00;99.90
37460;DHT22;23318;50.966;5.284;2023-08-30T11:00:23;15.10;99.90
37460;DHT22;23318;50.966;5.284;2023-08-30T11:02:50;15.10;99.90
37460;DHT22;23318;50.966;5.284;2023-08-30T11:05:20;15.30;99.90
37460;DHT22;23318;50.966;5.284;2023-08-30T11:07:46;15.20;99.90
37460;DHT22;23318;50.966;5.284;2023-08-30T11:10:14;15.50;99.90
37460;DHT22;23318;50.966;5.284;2023-08-30T11:12:41;15.50;99.90
37460;DHT22;23318;50.966;5.284;2023-08-30T11:15:07;15.50;99.90
37460;DHT22;23318;50.966;5.284;2023-08-30T11:17:34;15.50;99.90
37460;DHT22;23318;50.966;5.284;2023-08-30T11:20:11;15.50;99.90
37460;DHT22;23318;50.966;5.284;2023-08-30T11:25:08;15.70;99.90
37460;DHT22;23318;50.966;5.284;2023-08-30T11:27:34;15.70;99.90
37460;DHT22;23318;50.966;5.284;2023-08-30T11:30:01;15.90;99.90
37460;DHT22;23318;50.966;5.284;2023-08-30T11:32:38;15.80;99.90
37460;DHT22;23318;50.966;5.284;2023-08-30T11:35:05;16.00;99.90
37460;DHT22;23318;50.966;5.284;2023-08-30T11:37:32;15.90;99.90
37460;DHT22;23318;50.966;5.284;2023-08-30T11:39:58;16.00;99.90
37460;DHT22;23318;50.966;5.284;2023-08-30T11:42:25;16.10;99.90
37460;DHT22;23318;50.966;5.284;2023-08-30T11:44:51;16.20;99.90
37460;DHT22;23318;50.966;5.284;2023-08-30T11:47:24;16.40;99.90
37460;DHT22;23318;50.966;5.284;2023-08-30T11:49:55;16.40;99.90
37460;DHT22;23318;50.966;5.284;2023-08-30T11:52:21;16.00;99.90
37460;DHT22;23318;50.966;5.284;2023-08-30T11:54:49;16.00;99.90
37460;DHT22;23318;50.966;5.284;2023-08-30T11:57:15;15.90;99.90
37460;DHT22;23318;50.966;5.284;2023-08-30T11:59:41;16.10;99.90
37460;DHT22;23318;50.966;5.284;2023-08-30T12:02:07;16.20;99.90
37460;DHT22;23318;50.966;5.284;2023-08-30T12:04:43;16.30;99.90
37460;DHT22;23318;50.966;5.284;2023-08-30T12:07:09;16.20;99.90
37460;DHT22;23318;50.966;5.284;2023-08-30T12:09:36;16.30;99.90
37460;DHT22;23318;50.966;5.284;2023-08-30T12:12:11;16.40;99.90
37460;DHT22;23318;50.966;5.284;2023-08-30T12:14:37;16.40;99.90
37460;DHT22;23318;50.966;5.284;2023-08-30T12:17:04;16.20;99.90
37460;DHT22;23318;50.966;5.284;2023-08-30T12:19:31;16.10;99.90
37460;DHT22;23318;50.966;5.284;2023-08-30T12:22:03;16.00;99.90
37460;DHT22;23318;50.966;5.284;2023-08-30T12:24:39;16.00;99.90
37460;DHT22;23318;50.966;5.284;2023-08-30T12:27:05;15.90;99.90
37460;DHT22;23318;50.966;5.284;2023-08-30T12:29:31;16.00;99.90
37460;DHT22;23318;50.966;5.284;2023-08-30T12:31:57;16.20;99.90
37460;DHT22;23318;50.966;5.284;2023-08-30T12:34:22;16.40;99.90
37460;DHT22;23318;50.966;5.284;2023-08-30T12:36:48;16.30;99.90
37460;DHT22;23318;50.966;5.284;2023-08-30T12:39:14;16.30;99.90
37460;DHT22;23318;50.966;5.284;2023-08-30T12:41:39;16.40;99.90
37460;DHT22;23318;50.966;5.284;2023-08-30T12:44:08;16.60;99.90
37460;DHT22;23318;50.966;5.284;2023-08-30T12:46:33;16.90;99.90
37460;DHT22;23318;50.966;5.284;2023-08-30T12:48:59;17.00;99.90
37460;DHT22;23318;50.966;5.284;2023-08-30T12:51:25;16.80;99.90
37460;DHT22;23318;50.966;5.284;2023-08-30T12:53:50;16.70;99.90
37460;DHT22;23318;50.966;5.284;2023-08-30T12:56:16;16.40;99.90
37460;DHT22;23318;50.966;5.284;2023-08-30T12:58:42;16.40;99.90
37460;DHT22;23318;50.966;5.284;2023-08-30T13:01:07;16.40;99.90
37460;DHT22;23318;50.966;5.284;2023-08-30T13:03:33;16.30;99.90
37460;DHT22;23318;50.966;5.284;2023-08-30T13:05:59;16.40;99.90
37460;DHT22;23318;50.966;5.284;2023-08-30T13:08:24;16.70;99.90
37460;DHT22;23318;50.966;5.284;2023-08-30T13:10:50;16.70;99.90
37460;DHT22;23318;50.966;5.284;2023-08-30T13:13:16;16.70;99.90
37460;DHT22;23318;50.966;5.284;2023-08-30T13:15:42;17.20;99.90
37460;DHT22;23318;50.966;5.284;2023-08-30T13:18:08;18.20;99.90
37460;DHT22;23318;50.966;5.284;2023-08-30T13:20:38;18.30;99.90
37460;DHT22;23318;50.966;5.284;2023-08-30T13:23:03;18.10;99.90
37460;DHT22;23318;50.966;5.284;2023-08-30T13:25:29;18.10;99.90
37460;DHT22;23318;50.966;5.284;2023-08-30T13:27:55;18.50;99.90
37460;DHT22;23318;50.966;5.284;2023-08-30T13:30:20;19.30;99.90
37460;DHT22;23318;50.966;5.284;2023-08-30T13:32:46;19.50;99.90
37460;DHT22;23318;50.966;5.284;2023-08-30T13:35:12;19.20;99.90
37460;DHT22;23318;50.966;5.284;2023-08-30T13:37:38;19.00;99.90
37460;DHT22;23318;50.966;5.284;2023-08-30T13:40:04;18.50;99.90
37460;DHT22;23318;50.966;5.284;2023-08-30T13:42:32;18.40;99.90
37460;DHT22;23318;50.966;5.284;2023-08-30T13:44:58;19.20;99.90
37460;DHT22;23318;50.966;5.284;2023-08-30T13:47:23;20.70;99.90
37460;DHT22;23318;50.966;5.284;2023-08-30T13:49:49;21.50;99.90
37460;DHT22;23318;50.966;5.284;2023-08-30T13:52:15;22.30;99.90
37460;DHT22;23318;50.966;5.284;2023-08-30T13:54:41;22.70;99.90
37460;DHT22;23318;50.966;5.284;2023-08-30T13:57:07;22.10;99.90
37460;DHT22;23318;50.966;5.284;2023-08-30T13:59:32;23.80;99.90
37460;DHT22;23318;50.966;5.284;2023-08-30T14:02:01;23.20;99.00
37460;DHT22;23318;50.966;5.284;2023-08-30T14:04:29;24.80;97.90
37460;DHT22;23318;50.966;5.284;2023-08-30T14:06:57;26.00;96.10
37460;DHT22;23318;50.966;5.284;2023-08-30T14:09:23;25.20;96.20
37460;DHT22;23318;50.966;5.284;2023-08-30T14:11:49;27.10;95.60
37460;DHT22;23318;50.966;5.284;2023-08-30T14:14:15;25.80;94.80
37460;DHT22;23318;50.966;5.284;2023-08-30T14:16:41;26.00;95.30
37460;DHT22;23318;50.966;5.284;2023-08-30T14:19:06;25.80;94.40
37460;DHT22;23318;50.966;5.284;2023-08-30T14:21:32;25.80;95.30
37460;DHT22;23318;50.966;5.284;2023-08-30T14:23:58;26.10;94.50
37460;DHT22;23318;50.966;5.284;2023-08-30T14:26:25;24.90;94.40
37460;DHT22;23318;50.966;5.284;2023-08-30T14:28:51;24.70;94.60
37460;DHT22;23318;50.966;5.284;2023-08-30T14:31:16;25.80;94.70
37460;DHT22;23318;50.966;5.284;2023-08-30T14:33:44;25.90;94.50
37460;DHT22;23318;50.966;5.284;2023-08-30T14:36:13;28.00;93.00
37460;DHT22;23318;50.966;5.284;2023-08-30T14:38:39;26.90;93.50
37460;DHT22;23318;50.966;5.284;2023-08-30T14:41:06;25.40;93.70
37460;DHT22;23318;50.966;5.284;2023-08-30T14:43:32;26.60;94.00
37460;DHT22;23318;50.966;5.284;2023-08-30T14:46:05;27.80;93.70
37460;DHT22;23318;50.966;5.284;2023-08-30T14:48:34;26.20;93.60
37460;DHT22;23318;50.966;5.284;2023-08-30T14:51:00;24.90;93.80
37460;DHT22;23318;50.966;5.284;2023-08-30T14:53:26;24.40;94.80
37460;DHT22;23318;50.966;5.284;2023-08-30T14:55:52;24.00;94.90
37460;DHT22;23318;50.966;5.284;2023-08-30T14:58:18;24.50;95.00
37460;DHT22;23318;50.966;5.284;2023-08-30T15:00:46;23.50;95.60
37460;DHT22;23318;50.966;5.284;2023-08-30T15:03:12;23.10;96.40
37460;DHT22;23318;50.966;5.284;2023-08-30T15:05:38;23.70;95.80
37460;DHT22;23318;50.966;5.284;2023-08-30T15:08:04;23.10;96.40
37460;DHT22;23318;50.966;5.284;2023-08-30T15:10:29;22.20;97.20
37460;DHT22;23318;50.966;5.284;2023-08-30T15:12:55;21.90;97.30
37460;DHT22;23318;50.966;5.284;2023-08-30T15:15:21;22.00;97.00
37460;DHT22;23318;50.966;5.284;2023-08-30T15:17:46;21.80;97.40
37460;DHT22;23318;50.966;5.284;2023-08-30T15:20:12;22.50;96.90
37460;DHT22;23318;50.966;5.284;2023-08-30T15:22:37;21.40;96.90
37460;DHT22;23318;50.966;5.284;2023-08-30T15:25:04;21.20;96.90
37460;DHT22;23318;50.966;5.284;2023-08-30T15:27:35;20.90;97.50
37460;DHT22;23318;50.966;5.284;2023-08-30T15:30:01;21.10;97.70
37460;DHT22;23318;50.966;5.284;2023-08-30T15:32:27;20.80;97.80